sensor_id;sensor_type;location;lat;lon;timestamp;temperature;humidity
25302;DHT22;13243;50.888;4.724;2024-01-16T00:02:00;1.50;99.90
25302;DHT22;13243;50.888;4.724;2024-01-16T00:07:01;1.50;99.90
25302;DHT22;13243;50.888;4.724;2024-01-16T00:12:04;1.50;99.90
25302;DHT22;13243;50.888;4.724;2024-01-16T00:17:06;1.50;99.90
25302;DHT22;13243;50.888;4.724;2024-01-16T00:22:08;1.50;99.90
25302;DHT22;13243;50.888;4.724;2024-01-16T00:27:10;2.00;99.90
25302;DHT22;13243;50.888;4.724;2024-01-16T00:32:12;1.50;99.90
25302;DHT22;13243;50.888;4.724;2024-01-16T00:37:17;1.50;99.90
25302;DHT22;13243;50.888;4.724;2024-01-16T00:42:19;1.40;99.90
25302;DHT22;13243;50.888;4.724;2024-01-16T00:47:21;1.50;99.90
25302;DHT22;13243;50.888;4.724;2024-01-16T00:52:23;1.30;99.90
25302;DHT22;13243;50.888;4.724;2024-01-16T00:57:25;1.20;99.90
25302;DHT22;13243;50.888;4.724;2024-01-16T01:02:27;1.20;99.90
25302;DHT22;13243;50.888;4.724;2024-01-16T01:07:29;1.10;99.90
25302;DHT22;13243;50.888;4.724;2024-01-16T01:12:31;1.10;99.90
25302;DHT22;13243;50.888;4.724;2024-01-16T01:17:33;1.10;99.90
25302;DHT22;13243;50.888;4.724;2024-01-16T01:22:35;1.10;99.90
25302;DHT22;13243;50.888;4.724;2024-01-16T01:27:39;1.10;99.90
25302;DHT22;13243;50.888;4.724;2024-01-16T01:32:41;1.10;99.90
25302;DHT22;13243;50.888;4.724;2024-01-16T01:37:43;1.20;99.90
25302;DHT22;13243;50.888;4.724;2024-01-16T01:42:45;1.20;99.90
25302;DHT22;13243;50.888;4.724;2024-01-16T01:47:47;1.20;99.90
25302;DHT22;13243;50.888;4.724;2024-01-16T01:52:49;1.20;99.90
25302;DHT22;13243;50.888;4.724;2024-01-16T01:57:52;1.10;99.90
25302;DHT22;13243;50.888;4.724;2024-01-16T02:02:54;1.10;99.90
25302;DHT22;13243;50.888;4.724;2024-01-16T02:07:57;1.10;99.90
25302;DHT22;13243;50.888;4.724;2024-01-16T02:12:59;1.00;99.90
25302;DHT22;13243;50.888;4.724;2024-01-16T02:18:01;0.90;99.90
25302;DHT22;13243;50.888;4.724;2024-01-16T02:23:04;0.90;99.90
25302;DHT22;13243;50.888;4.724;2024-01-16T02:28:06;0.90;99.90
25302;DHT22;13243;50.888;4.724;2024-01-16T02:33:08;0.90;99.90
25302;DHT22;13243;50.888;4.724;2024-01-16T02:38:10;1.50;99.90
25302;DHT22;13243;50.888;4.724;2024-01-16T02:43:12;0.90;99.90
25302;DHT22;13243;50.888;4.724;2024-01-16T02:48:14;0.90;99.90
25302;DHT22;13243;50.888;4.724;2024-01-16T02:53:17;0.80;99.90
25302;DHT22;13243;50.888;4.724;2024-01-16T02:58:19;0.80;99.90
25302;DHT22;13243;50.888;4.724;2024-01-16T03:03:21;1.10;99.90
25302;DHT22;13243;50.888;4.724;2024-01-16T03:08:23;0.70;99.90
25302;DHT22;13243;50.888;4.724;2024-01-16T03:13:25;1.00;99.90
25302;DHT22;13243;50.888;4.724;2024-01-16T03:18:27;0.70;99.90
25302;DHT22;13243;50.888;4.724;2024-01-16T03:23:29;0.70;99.90
25302;DHT22;13243;50.888;4.724;2024-01-16T03:28:31;0.80;99.90
25302;DHT22;13243;50.888;4.724;2024-01-16T03:33:33;0.60;99.90
25302;DHT22;13243;50.888;4.724;2024-01-16T03:38:44;0.60;99.90
25302;DHT22;13243;50.888;4.724;2024-01-16T03:43:46;0.60;99.90
25302;DHT22;13243;50.888;4.724;2024-01-16T03:48:48;0.50;99.90
25302;DHT22;13243;50.888;4.724;2024-01-16T03:53:50;0.60;99.90
25302;DHT22;13243;50.888;4.724;2024-01-16T03:58:52;0.50;99.90
25302;DHT22;13243;50.888;4.724;2024-01-16T04:03:54;0.40;99.90
25302;DHT22;13243;50.888;4.724;2024-01-16T04:08:56;0.40;99.90
25302;DHT22;13243;50.888;4.724;2024-01-16T04:13:58;0.50;99.90
25302;DHT22;13243;50.888;4.724;2024-01-16T04:19:01;0.40;99.90
25302;DHT22;13243;50.888;4.724;2024-01-16T04:24:03;0.50;99.90
25302;DHT22;13243;50.888;4.724;2024-01-16T04:29:05;0.40;99.90
25302;DHT22;13243;50.888;4.724;2024-01-16T04:34:07;0.40;99.90
25302;DHT22;13243;50.888;4.724;2024-01-16T04:39:09;0.40;99.90
25302;DHT22;13243;50.888;4.724;2024-01-16T04:44:11;0.30;99.90
25302;DHT22;13243;50.888;4.724;2024-01-16T04:49:13;0.30;99.90
25302;DHT22;13243;50.888;4.724;2024-01-16T04:54:15;0.50;99.90
25302;DHT22;13243;50.888;4.724;2024-01-16T04:59:17;0.20;99.90
25302;DHT22;13243;50.888;4.724;2024-01-16T05:04:19;0.10;99.90
25302;DHT22;13243;50.888;4.724;2024-01-16T05:09:21;0.10;99.90
25302;DHT22;13243;50.888;4.724;2024-01-16T05:14:23;0.10;99.90
25302;DHT22;13243;50.888;4.724;2024-01-16T05:19:26;0.00;99.90
25302;DHT22;13243;50.888;4.724;2024-01-16T05:24:29;0.00;99.90
25302;DHT22;13243;50.888;4.724;2024-01-16T05:29:31;-0.10;99.90
25302;DHT22;13243;50.888;4.724;2024-01-16T05:34:33;-0.10;99.90
25302;DHT22;13243;50.888;4.724;2024-01-16T05:39:34;-0.10;99.90
25302;DHT22;13243;50.888;4.724;2024-01-16T05:44:37;-0.20;99.90
25302;DHT22;13243;50.888;4.724;2024-01-16T05:49:39;-0.20;99.90
25302;DHT22;13243;50.888;4.724;2024-01-16T05:54:43;-0.20;99.90
25302;DHT22;13243;50.888;4.724;2024-01-16T05:59:45;-0.30;99.90
25302;DHT22;13243;50.888;4.724;2024-01-16T06:04:47;0.00;99.90
25302;DHT22;13243;50.888;4.724;2024-01-16T06:09:49;-0.30;99.90
25302;DHT22;13243;50.888;4.724;2024-01-16T06:14:52;-0.30;99.90
25302;DHT22;13243;50.888;4.724;2024-01-16T06:19:54;-0.50;99.90
25302;DHT22;13243;50.888;4.724;2024-01-16T06:24:56;-0.40;99.90
25302;DHT22;13243;50.888;4.724;2024-01-16T06:29:58;-0.40;99.90
25302;DHT22;13243;50.888;4.724;2024-01-16T06:35:00;-0.40;99.90
25302;DHT22;13243;50.888;4.724;2024-01-16T06:40:02;-0.40;99.90
25302;DHT22;13243;50.888;4.724;2024-01-16T06:45:05;-0.40;99.90
25302;DHT22;13243;50.888;4.724;2024-01-16T06:50:07;-0.40;99.90
25302;DHT22;13243;50.888;4.724;2024-01-16T06:55:09;-0.40;99.90
25302;DHT22;13243;50.888;4.724;2024-01-16T07:00:12;-0.30;99.90
25302;DHT22;13243;50.888;4.724;2024-01-16T07:05:16;-0.30;99.90
25302;DHT22;13243;50.888;4.724;2024-01-16T07:10:18;-0.30;99.90
25302;DHT22;13243;50.888;4.724;2024-01-16T07:15:20;-0.40;99.90
25302;DHT22;13243;50.888;4.724;2024-01-16T07:20:22;-0.30;99.90
25302;DHT22;13243;50.888;4.724;2024-01-16T07:25:24;-0.40;99.90
25302;DHT22;13243;50.888;4.724;2024-01-16T07:30:26;-0.40;99.90
25302;DHT22;13243;50.888;4.724;2024-01-16T07:35:28;-0.30;99.90
25302;DHT22;13243;50.888;4.724;2024-01-16T07:40:29;-0.30;99.90
25302;DHT22;13243;50.888;4.724;2024-01-16T07:45:31;-0.30;99.90
25302;DHT22;13243;50.888;4.724;2024-01-16T07:50:34;-0.30;99.90
25302;DHT22;13243;50.888;4.724;2024-01-16T07:55:36;-0.20;99.90
25302;DHT22;13243;50.888;4.724;2024-01-16T08:00:38;-0.20;99.90
25302;DHT22;13243;50.888;4.724;2024-01-16T08:05:40;-0.20;99.90
25302;DHT22;13243;50.888;4.724;2024-01-16T08:10:42;-0.20;99.90
25302;DHT22;13243;50.888;4.724;2024-01-16T08:15:44;-0.20;99.90
25302;DHT22;13243;50.888;4.724;2024-01-16T08:20:46;0.20;99.90
25302;DHT22;13243;50.888;4.724;2024-01-16T08:25:48;-0.20;99.90
25302;DHT22;13243;50.888;4.724;2024-01-16T08:30:50;-0.10;99.90
25302;DHT22;13243;50.888;4.724;2024-01-16T08:35:52;-0.20;99.90
25302;DHT22;13243;50.888;4.724;2024-01-16T08:40:54;-0.10;99.90
25302;DHT22;13243;50.888;4.724;2024-01-16T08:45:56;-0.10;99.90
25302;DHT22;13243;50.888;4.724;2024-01-16T08:50:58;0.00;99.90
25302;DHT22;13243;50.888;4.724;2024-01-16T08:56:03;0.00;99.90
25302;DHT22;13243;50.888;4.724;2024-01-16T09:01:08;0.00;99.90
25302;DHT22;13243;50.888;4.724;2024-01-16T09:06:12;0.00;99.90
25302;DHT22;13243;50.888;4.724;2024-01-16T09:11:14;0.10;99.90
25302;DHT22;13243;50.888;4.724;2024-01-16T09:16:16;0.80;99.90
25302;DHT22;13243;50.888;4.724;2024-01-16T09:21:17;2.90;99.90
25302;DHT22;13243;50.888;4.724;2024-01-16T09:26:19;0.60;99.90
25302;DHT22;13243;50.888;4.724;2024-01-16T09:31:23;0.30;99.90
25302;DHT22;13243;50.888;4.724;2024-01-16T09:36:26;0.30;99.90
25302;DHT22;13243;50.888;4.724;2024-01-16T09:41:28;0.40;99.90
25302;DHT22;13243;50.888;4.724;2024-01-16T09:46:31;0.30;99.90
25302;DHT22;13243;50.888;4.724;2024-01-16T09:51:33;0.40;99.90
25302;DHT22;13243;50.888;4.724;2024-01-16T09:56:39;0.50;99.90
25302;DHT22;13243;50.888;4.724;2024-01-16T10:01:43;0.40;99.90
25302;DHT22;13243;50.888;4.724;2024-01-16T10:06:47;0.50;99.90
25302;DHT22;13243;50.888;4.724;2024-01-16T10:11:50;0.80;99.90
25302;DHT22;13243;50.888;4.724;2024-01-16T10:17:01;1.00;99.90
25302;DHT22;13243;50.888;4.724;2024-01-16T10:22:21;1.00;99.90
25302;DHT22;13243;50.888;4.724;2024-01-16T10:27:27;1.00;99.90
25302;DHT22;13243;50.888;4.724;2024-01-16T10:32:34;1.00;99.90
25302;DHT22;13243;50.888;4.724;2024-01-16T10:37:49;1.00;99.90
25302;DHT22;13243;50.888;4.724;2024-01-16T10:42:58;1.10;99.90
25302;DHT22;13243;50.888;4.724;2024-01-16T10:48:08;1.40;99.90
25302;DHT22;13243;50.888;4.724;2024-01-16T10:53:12;1.50;99.90
25302;DHT22;13243;50.888;4.724;2024-01-16T10:58:21;1.50;99.90
25302;DHT22;13243;50.888;4.724;2024-01-16T11:03:50;2.60;99.90
25302;DHT22;13243;50.888;4.724;2024-01-16T11:08:52;1.70;99.90
25302;DHT22;13243;50.888;4.724;2024-01-16T11:13:56;2.00;99.90
25302;DHT22;13243;50.888;4.724;2024-01-16T11:18:59;2.00;99.90
25302;DHT22;13243;50.888;4.724;2024-01-16T11:24:20;2.00;99.90
25302;DHT22;13243;50.888;4.724;2024-01-16T11:40:20;2.20;99.90
25302;DHT22;13243;50.888;4.724;2024-01-16T11:50:42;2.20;99.90
25302;DHT22;13243;50.888;4.724;2024-01-16T12:01:08;2.60;99.90
25302;DHT22;13243;50.888;4.724;2024-01-16T12:06:10;2.60;99.90
25302;DHT22;13243;50.888;4.724;2024-01-16T12:11:18;2.40;99.90
25302;DHT22;13243;50.888;4.724;2024-01-16T12:16:25;2.50;99.90
25302;DHT22;13243;50.888;4.724;2024-01-16T12:21:29;2.70;99.90
25302;DHT22;13243;50.888;4.724;2024-01-16T12:26:31;2.60;99.90
25302;DHT22;13243;50.888;4.724;2024-01-16T12:31:35;2.80;99.90
25302;DHT22;13243;50.888;4.724;2024-01-16T12:36:37;3.00;99.90
25302;DHT22;13243;50.888;4.724;2024-01-16T12:41:44;4.10;99.90
25302;DHT22;13243;50.888;4.724;2024-01-16T12:46:55;3.00;99.90
25302;DHT22;13243;50.888;4.724;2024-01-16T12:52:22;2.90;99.90
25302;DHT22;13243;50.888;4.724;2024-01-16T12:57:28;2.90;99.90
25302;DHT22;13243;50.888;4.724;2024-01-16T13:02:30;3.10;99.90
25302;DHT22;13243;50.888;4.724;2024-01-16T13:07:32;3.00;99.90
25302;DHT22;13243;50.888;4.724;2024-01-16T13:12:35;3.10;99.90
25302;DHT22;13243;50.888;4.724;2024-01-16T13:17:38;3.10;99.90
25302;DHT22;13243;50.888;4.724;2024-01-16T13:22:40;3.30;99.90
25302;DHT22;13243;50.888;4.724;2024-01-16T13:27:48;3.10;99.90
25302;DHT22;13243;50.888;4.724;2024-01-16T13:32:50;3.10;99.90
25302;DHT22;13243;50.888;4.724;2024-01-16T13:37:52;3.20;99.90
25302;DHT22;13243;50.888;4.724;2024-01-16T13:42:54;3.60;99.90
25302;DHT22;13243;50.888;4.724;2024-01-16T13:47:57;3.70;99.90
25302;DHT22;13243;50.888;4.724;2024-01-16T13:53:02;3.60;99.90
25302;DHT22;13243;50.888;4.724;2024-01-16T13:58:04;4.20;99.90
25302;DHT22;13243;50.888;4.724;2024-01-16T14:03:06;4.10;99.90
25302;DHT22;13243;50.888;4.724;2024-01-16T14:08:09;4.40;99.90
25302;DHT22;13243;50.888;4.724;2024-01-16T14:13:14;4.30;99.90
25302;DHT22;13243;50.888;4.724;2024-01-16T14:18:17;4.50;99.90
25302;DHT22;13243;50.888;4.724;2024-01-16T14:23:19;4.20;99.90
25302;DHT22;13243;50.888;4.724;2024-01-16T14:28:22;5.10;99.90
25302;DHT22;13243;50.888;4.724;2024-01-16T14:33:31;5.60;99.90
25302;DHT22;13243;50.888;4.724;2024-01-16T14:38:33;7.70;99.90
25302;DHT22;13243;50.888;4.724;2024-01-16T14:43:35;8.90;99.90
25302;DHT22;13243;50.888;4.724;2024-01-16T14:48:46;7.90;99.90
25302;DHT22;13243;50.888;4.724;2024-01-16T14:53:48;9.50;99.90
25302;DHT22;13243;50.888;4.724;2024-01-16T14:58:50;8.30;99.90
25302;DHT22;13243;50.888;4.724;2024-01-16T15:03:52;7.50;99.90
25302;DHT22;13243;50.888;4.724;2024-01-16T15:08:55;5.90;99.90
25302;DHT22;13243;50.888;4.724;2024-01-16T15:13:57;3.80;99.90
25302;DHT22;13243;50.888;4.724;2024-01-16T15:18:59;3.50;99.90
25302;DHT22;13243;50.888;4.724;2024-01-16T15:24:01;3.40;99.90
25302;DHT22;13243;50.888;4.724;2024-01-16T15:29:03;3.20;99.90
25302;DHT22;13243;50.888;4.724;2024-01-16T15:34:06;2.90;99.90
25302;DHT22;13243;50.888;4.724;2024-01-16T15:39:08;3.80;99.90
25302;DHT22;13243;50.888;4.724;2024-01-16T15:44:10;2.90;99.90
25302;DHT22;13243;50.888;4.724;2024-01-16T15:49:13;2.80;99.90
25302;DHT22;13243;50.888;4.724;2024-01-16T15:54:14;2.70;99.90
25302;DHT22;13243;50.888;4.724;2024-01-16T15:59:17;2.60;99.90
25302;DHT22;13243;50.888;4.724;2024-01-16T16:04:19;2.50;99.90
25302;DHT22;13243;50.888;4.724;2024-01-16T16:09:21;2.30;99.90
25302;DHT22;13243;50.888;4.724;2024-01-16T16:14:24;2.70;99.90
25302;DHT22;13243;50.888;4.724;2024-01-16T16:19:29;2.30;99.90
25302;DHT22;13243;50.888;4.724;2024-01-16T16:24:32;2.20;99.90
25302;DHT22;13243;50.888;4.724;2024-01-16T16:29:34;2.60;99.90
25302;DHT22;13243;50.888;4.724;2024-01-16T16:34:36;2.00;99.90
25302;DHT22;13243;50.888;4.724;2024-01-16T16:39:38;1.80;99.90
25302;DHT22;13243;50.888;4.724;2024-01-16T16:44:40;1.60;99.90
25302;DHT22;13243;50.888;4.724;2024-01-16T16:49:42;1.40;99.90
25302;DHT22;13243;50.888;4.724;2024-01-16T16:54:44;1.40;99.90
25302;DHT22;13243;50.888;4.724;2024-01-16T16:59:50;1.40;99.90
25302;DHT22;13243;50.888;4.724;2024-01-16T17:04:52;1.30;99.90
25302;DHT22;13243;50.888;4.724;2024-01-16T17:09:54;1.20;99.90
25302;DHT22;13243;50.888;4.724;2024-01-16T17:14:57;1.10;99.90
25302;DHT22;13243;50.888;4.724;2024-01-16T17:19:59;1.00;99.90
25302;DHT22;13243;50.888;4.724;2024-01-16T17:25:01;0.80;99.90
25302;DHT22;13243;50.888;4.724;2024-01-16T17:30:04;0.80;99.90
25302;DHT22;13243;50.888;4.724;2024-01-16T17:35:09;0.90;99.90
25302;DHT22;13243;50.888;4.724;2024-01-16T17:40:15;1.00;99.90
25302;DHT22;13243;50.888;4.724;2024-01-16T17:45:17;1.30;99.90
25302;DHT22;13243;50.888;4.724;2024-01-16T17:50:19;0.70;99.90
25302;DHT22;13243;50.888;4.724;2024-01-16T17:55:21;0.50;99.90
25302;DHT22;13243;50.888;4.724;2024-01-16T18:00:24;0.50;99.90
25302;DHT22;13243;50.888;4.724;2024-01-16T18:05:28;0.50;99.90
25302;DHT22;13243;50.888;4.724;2024-01-16T18:10:31;0.40;99.90
25302;DHT22;13243;50.888;4.724;2024-01-16T18:15:33;0.30;99.90
25302;DHT22;13243;50.888;4.724;2024-01-16T18:20:36;1.50;99.90
25302;DHT22;13243;50.888;4.724;2024-01-16T18:25:37;0.30;99.90
25302;DHT22;13243;50.888;4.724;2024-01-16T18:30:39;0.30;99.90
25302;DHT22;13243;50.888;4.724;2024-01-16T18:35:41;0.30;99.90
25302;DHT22;13243;50.888;4.724;2024-01-16T18:40:44;0.30;99.90
25302;DHT22;13243;50.888;4.724;2024-01-16T18:45:45;0.20;99.90
25302;DHT22;13243;50.888;4.724;2024-01-16T18:50:47;0.60;99.90
25302;DHT22;13243;50.888;4.724;2024-01-16T18:55:53;0.20;99.90
25302;DHT22;13243;50.888;4.724;2024-01-16T19:00:56;0.20;99.90
25302;DHT22;13243;50.888;4.724;2024-01-16T19:06:00;0.10;99.90
25302;DHT22;13243;50.888;4.724;2024-01-16T19:11:02;0.00;99.90
25302;DHT22;13243;50.888;4.724;2024-01-16T19:16:04;0.00;99.90
25302;DHT22;13243;50.888;4.724;2024-01-16T19:21:08;0.20;99.90
25302;DHT22;13243;50.888;4.724;2024-01-16T19:26:11;-0.10;99.90
25302;DHT22;13243;50.888;4.724;2024-01-16T19:31:13;-0.10;99.90
25302;DHT22;13243;50.888;4.724;2024-01-16T19:36:16;-0.30;99.90
25302;DHT22;13243;50.888;4.724;2024-01-16T19:41:18;-0.30;99.90
25302;DHT22;13243;50.888;4.724;2024-01-16T19:46:21;-0.30;99.90
25302;DHT22;13243;50.888;4.724;2024-01-16T19:51:24;-0.30;99.90
25302;DHT22;13243;50.888;4.724;2024-01-16T19:56:31;-0.20;99.90
25302;DHT22;13243;50.888;4.724;2024-01-16T20:01:33;-0.30;99.90
25302;DHT22;13243;50.888;4.724;2024-01-16T20:06:35;-0.20;99.90
25302;DHT22;13243;50.888;4.724;2024-01-16T20:11:38;-0.40;99.90
25302;DHT22;13243;50.888;4.724;2024-01-16T20:16:40;-0.50;99.90
25302;DHT22;13243;50.888;4.724;2024-01-16T20:21:42;-0.50;99.90
25302;DHT22;13243;50.888;4.724;2024-01-16T20:26:46;0.00;99.90
25302;DHT22;13243;50.888;4.724;2024-01-16T20:31:48;-0.50;99.90
25302;DHT22;13243;50.888;4.724;2024-01-16T20:36:50;-0.50;99.90
25302;DHT22;13243;50.888;4.724;2024-01-16T20:41:56;0.60;99.90
25302;DHT22;13243;50.888;4.724;2024-01-16T20:47:00;-0.60;99.90
25302;DHT22;13243;50.888;4.724;2024-01-16T20:52:02;-0.50;99.90
25302;DHT22;13243;50.888;4.724;2024-01-16T20:57:04;-0.50;99.90
25302;DHT22;13243;50.888;4.724;2024-01-16T21:02:07;-0.60;99.90
25302;DHT22;13243;50.888;4.724;2024-01-16T21:07:09;0.50;99.90
25302;DHT22;13243;50.888;4.724;2024-01-16T21:12:11;-0.40;99.90
25302;DHT22;13243;50.888;4.724;2024-01-16T21:17:14;-0.60;99.90
25302;DHT22;13243;50.888;4.724;2024-01-16T21:22:16;-0.70;99.90
25302;DHT22;13243;50.888;4.724;2024-01-16T21:27:31;-0.70;99.90
25302;DHT22;13243;50.888;4.724;2024-01-16T21:32:34;0.10;99.90
25302;DHT22;13243;50.888;4.724;2024-01-16T21:37:36;-0.70;99.90
25302;DHT22;13243;50.888;4.724;2024-01-16T21:42:38;-0.70;99.90
25302;DHT22;13243;50.888;4.724;2024-01-16T21:47:40;-0.70;99.90
25302;DHT22;13243;50.888;4.724;2024-01-16T21:52:44;-0.70;99.90
25302;DHT22;13243;50.888;4.724;2024-01-16T21:57:46;-0.70;99.90
25302;DHT22;13243;50.888;4.724;2024-01-16T22:02:48;0.30;99.90
25302;DHT22;13243;50.888;4.724;2024-01-16T22:07:50;-0.10;99.90
25302;DHT22;13243;50.888;4.724;2024-01-16T22:12:52;-0.90;99.90
25302;DHT22;13243;50.888;4.724;2024-01-16T22:17:54;-0.90;99.90
25302;DHT22;13243;50.888;4.724;2024-01-16T22:22:58;-0.90;99.90
25302;DHT22;13243;50.888;4.724;2024-01-16T22:28:00;-0.70;99.90
25302;DHT22;13243;50.888;4.724;2024-01-16T22:33:02;0.20;99.90
25302;DHT22;13243;50.888;4.724;2024-01-16T22:38:06;-0.80;99.90
25302;DHT22;13243;50.888;4.724;2024-01-16T22:43:08;-0.70;99.90
25302;DHT22;13243;50.888;4.724;2024-01-16T22:48:10;-1.00;99.90
25302;DHT22;13243;50.888;4.724;2024-01-16T22:53:13;-0.90;99.90
25302;DHT22;13243;50.888;4.724;2024-01-16T22:58:15;-1.10;99.90
25302;DHT22;13243;50.888;4.724;2024-01-16T23:03:17;-0.60;99.90
25302;DHT22;13243;50.888;4.724;2024-01-16T23:08:21;-1.00;99.90
25302;DHT22;13243;50.888;4.724;2024-01-16T23:13:23;-1.10;99.90
25302;DHT22;13243;50.888;4.724;2024-01-16T23:18:25;-1.10;99.90
25302;DHT22;13243;50.888;4.724;2024-01-16T23:23:29;0.10;99.90
25302;DHT22;13243;50.888;4.724;2024-01-16T23:28:31;-1.30;99.90
25302;DHT22;13243;50.888;4.724;2024-01-16T23:33:33;-1.20;99.90
25302;DHT22;13243;50.888;4.724;2024-01-16T23:38:35;-1.30;99.90
25302;DHT22;13243;50.888;4.724;2024-01-16T23:43:39;-1.40;99.90
25302;DHT22;13243;50.888;4.724;2024-01-16T23:48:44;-1.50;99.90
25302;DHT22;13243;50.888;4.724;2024-01-16T23:53:46;-1.40;99.90
25302;DHT22;13243;50.888;4.724;2024-01-16T23:58:48;-1.40;99.90
